sensor_id;sensor_type;location;lat;lon;timestamp;temperature;humidity
60293;DHT22;52402;52.670;6.750;2023-04-24T00:02:16;10.00;99.90
60293;DHT22;52402;52.670;6.750;2023-04-24T00:04:44;10.00;99.90
60293;DHT22;52402;52.670;6.750;2023-04-24T00:07:13;10.00;99.90
60293;DHT22;52402;52.670;6.750;2023-04-24T00:09:44;10.00;99.90
60293;DHT22;52402;52.670;6.750;2023-04-24T00:12:12;9.90;99.90
60293;DHT22;52402;52.670;6.750;2023-04-24T00:14:44;9.90;99.90
60293;DHT22;52402;52.670;6.750;2023-04-24T00:17:14;9.90;99.90
60293;DHT22;52402;52.670;6.750;2023-04-24T00:19:50;9.90;99.90
60293;DHT22;52402;52.670;6.750;2023-04-24T00:22:19;9.90;99.90
60293;DHT22;52402;52.670;6.750;2023-04-24T00:24:54;9.80;99.90
60293;DHT22;52402;52.670;6.750;2023-04-24T00:27:25;9.80;99.90
60293;DHT22;52402;52.670;6.750;2023-04-24T00:29:50;9.80;99.90
60293;DHT22;52402;52.670;6.750;2023-04-24T00:32:16;9.80;99.90
60293;DHT22;52402;52.670;6.750;2023-04-24T00:34:45;9.80;99.90
60293;DHT22;52402;52.670;6.750;2023-04-24T00:37:15;9.70;99.90
60293;DHT22;52402;52.670;6.750;2023-04-24T00:39:45;9.70;99.90
60293;DHT22;52402;52.670;6.750;2023-04-24T00:42:18;9.70;99.90
60293;DHT22;52402;52.670;6.750;2023-04-24T00:44:49;9.60;99.90
60293;DHT22;52402;52.670;6.750;2023-04-24T00:47:19;9.60;99.90
60293;DHT22;52402;52.670;6.750;2023-04-24T00:49:49;9.60;99.90
60293;DHT22;52402;52.670;6.750;2023-04-24T00:52:25;9.60;99.90
60293;DHT22;52402;52.670;6.750;2023-04-24T00:55:01;9.50;99.90
60293;DHT22;52402;52.670;6.750;2023-04-24T00:57:29;9.50;99.90
60293;DHT22;52402;52.670;6.750;2023-04-24T01:00:02;9.50;99.90
60293;DHT22;52402;52.670;6.750;2023-04-24T01:02:28;9.50;99.90
60293;DHT22;52402;52.670;6.750;2023-04-24T01:04:58;9.50;99.90
60293;DHT22;52402;52.670;6.750;2023-04-24T01:07:34;9.50;99.90
60293;DHT22;52402;52.670;6.750;2023-04-24T01:09:59;9.50;99.90
60293;DHT22;52402;52.670;6.750;2023-04-24T01:12:25;9.50;99.90
60293;DHT22;52402;52.670;6.750;2023-04-24T01:14:53;9.40;99.90
60293;DHT22;52402;52.670;6.750;2023-04-24T01:17:24;9.40;99.90
60293;DHT22;52402;52.670;6.750;2023-04-24T01:19:54;9.40;99.90
60293;DHT22;52402;52.670;6.750;2023-04-24T01:22:25;9.40;99.90
60293;DHT22;52402;52.670;6.750;2023-04-24T01:24:53;9.40;99.90
60293;DHT22;52402;52.670;6.750;2023-04-24T01:27:23;9.40;99.90
60293;DHT22;52402;52.670;6.750;2023-04-24T01:29:48;9.40;99.90
60293;DHT22;52402;52.670;6.750;2023-04-24T01:32:19;9.40;99.90
60293;DHT22;52402;52.670;6.750;2023-04-24T01:34:49;9.30;99.90
60293;DHT22;52402;52.670;6.750;2023-04-24T01:37:20;9.40;99.90
60293;DHT22;52402;52.670;6.750;2023-04-24T01:39:48;9.30;99.90
60293;DHT22;52402;52.670;6.750;2023-04-24T01:42:18;9.30;99.90
60293;DHT22;52402;52.670;6.750;2023-04-24T01:44:55;9.30;99.90
60293;DHT22;52402;52.670;6.750;2023-04-24T01:47:27;9.30;99.90
60293;DHT22;52402;52.670;6.750;2023-04-24T01:49:55;9.40;99.90
60293;DHT22;52402;52.670;6.750;2023-04-24T01:52:30;9.30;99.90
60293;DHT22;52402;52.670;6.750;2023-04-24T01:55:07;9.30;99.90
60293;DHT22;52402;52.670;6.750;2023-04-24T01:57:42;9.40;99.90
60293;DHT22;52402;52.670;6.750;2023-04-24T02:00:18;9.40;99.90
60293;DHT22;52402;52.670;6.750;2023-04-24T02:02:50;9.40;99.90
60293;DHT22;52402;52.670;6.750;2023-04-24T02:05:18;9.40;99.90
60293;DHT22;52402;52.670;6.750;2023-04-24T02:07:51;9.40;99.90
60293;DHT22;52402;52.670;6.750;2023-04-24T02:10:19;9.40;99.90
60293;DHT22;52402;52.670;6.750;2023-04-24T02:12:47;9.40;99.90
60293;DHT22;52402;52.670;6.750;2023-04-24T02:15:21;9.40;99.90
60293;DHT22;52402;52.670;6.750;2023-04-24T02:17:49;9.40;99.90
60293;DHT22;52402;52.670;6.750;2023-04-24T02:20:15;9.40;99.90
60293;DHT22;52402;52.670;6.750;2023-04-24T02:22:47;9.40;99.90
60293;DHT22;52402;52.670;6.750;2023-04-24T02:25:17;9.40;99.90
60293;DHT22;52402;52.670;6.750;2023-04-24T02:27:51;9.40;99.90
60293;DHT22;52402;52.670;6.750;2023-04-24T02:30:23;9.40;99.90
60293;DHT22;52402;52.670;6.750;2023-04-24T02:32:55;9.40;99.90
60293;DHT22;52402;52.670;6.750;2023-04-24T02:35:23;9.40;99.90
60293;DHT22;52402;52.670;6.750;2023-04-24T02:37:51;9.40;99.90
60293;DHT22;52402;52.670;6.750;2023-04-24T02:40:19;9.40;99.90
60293;DHT22;52402;52.670;6.750;2023-04-24T02:42:47;9.40;99.90
60293;DHT22;52402;52.670;6.750;2023-04-24T02:45:21;9.40;99.90
60293;DHT22;52402;52.670;6.750;2023-04-24T02:47:49;9.40;99.90
60293;DHT22;52402;52.670;6.750;2023-04-24T02:50:21;9.40;99.90
60293;DHT22;52402;52.670;6.750;2023-04-24T02:52:49;9.40;99.90
60293;DHT22;52402;52.670;6.750;2023-04-24T02:55:17;9.40;99.90
60293;DHT22;52402;52.670;6.750;2023-04-24T02:57:43;9.30;99.90
60293;DHT22;52402;52.670;6.750;2023-04-24T03:00:14;9.40;99.90
60293;DHT22;52402;52.670;6.750;2023-04-24T03:02:42;9.40;99.90
60293;DHT22;52402;52.670;6.750;2023-04-24T03:05:11;9.30;99.90
60293;DHT22;52402;52.670;6.750;2023-04-24T03:07:46;9.40;99.90
60293;DHT22;52402;52.670;6.750;2023-04-24T03:10:17;9.40;99.90
60293;DHT22;52402;52.670;6.750;2023-04-24T03:12:43;9.30;99.90
60293;DHT22;52402;52.670;6.750;2023-04-24T03:15:18;9.30;99.90
60293;DHT22;52402;52.670;6.750;2023-04-24T03:17:51;9.30;99.90
60293;DHT22;52402;52.670;6.750;2023-04-24T03:20:21;9.30;99.90
60293;DHT22;52402;52.670;6.750;2023-04-24T03:22:53;9.30;99.90
60293;DHT22;52402;52.670;6.750;2023-04-24T03:25:24;9.30;99.90
60293;DHT22;52402;52.670;6.750;2023-04-24T03:27:54;9.30;99.90
60293;DHT22;52402;52.670;6.750;2023-04-24T03:30:28;9.30;99.90
60293;DHT22;52402;52.670;6.750;2023-04-24T03:32:56;9.30;99.90
60293;DHT22;52402;52.670;6.750;2023-04-24T03:35:32;9.30;99.90
60293;DHT22;52402;52.670;6.750;2023-04-24T03:38:02;9.30;99.90
60293;DHT22;52402;52.670;6.750;2023-04-24T03:40:34;9.20;99.90
60293;DHT22;52402;52.670;6.750;2023-04-24T03:43:05;9.20;99.90
60293;DHT22;52402;52.670;6.750;2023-04-24T03:45:35;9.20;99.90
60293;DHT22;52402;52.670;6.750;2023-04-24T03:48:05;9.20;99.90
60293;DHT22;52402;52.670;6.750;2023-04-24T03:50:33;9.20;99.90
60293;DHT22;52402;52.670;6.750;2023-04-24T03:53:04;9.20;99.90
60293;DHT22;52402;52.670;6.750;2023-04-24T03:55:39;9.20;99.90
60293;DHT22;52402;52.670;6.750;2023-04-24T03:58:12;9.20;99.90
60293;DHT22;52402;52.670;6.750;2023-04-24T04:00:39;9.20;99.90
60293;DHT22;52402;52.670;6.750;2023-04-24T04:03:06;9.20;99.90
60293;DHT22;52402;52.670;6.750;2023-04-24T04:05:38;9.20;99.90
60293;DHT22;52402;52.670;6.750;2023-04-24T04:08:04;9.20;99.90
60293;DHT22;52402;52.670;6.750;2023-04-24T04:10:32;9.20;99.90
60293;DHT22;52402;52.670;6.750;2023-04-24T04:13:00;9.10;99.90
60293;DHT22;52402;52.670;6.750;2023-04-24T04:15:30;9.20;99.90
60293;DHT22;52402;52.670;6.750;2023-04-24T04:18:05;9.20;99.90
60293;DHT22;52402;52.670;6.750;2023-04-24T04:20:36;9.10;99.90
60293;DHT22;52402;52.670;6.750;2023-04-24T04:23:01;9.10;99.90
60293;DHT22;52402;52.670;6.750;2023-04-24T04:25:32;9.20;99.90
60293;DHT22;52402;52.670;6.750;2023-04-24T04:28:00;9.10;99.90
60293;DHT22;52402;52.670;6.750;2023-04-24T04:30:29;9.20;99.90
60293;DHT22;52402;52.670;6.750;2023-04-24T04:33:00;9.10;99.90
60293;DHT22;52402;52.670;6.750;2023-04-24T04:35:30;9.10;99.90
60293;DHT22;52402;52.670;6.750;2023-04-24T04:38:04;9.10;99.90
60293;DHT22;52402;52.670;6.750;2023-04-24T04:40:31;9.20;99.90
60293;DHT22;52402;52.670;6.750;2023-04-24T04:43:02;9.10;99.90
60293;DHT22;52402;52.670;6.750;2023-04-24T04:45:35;9.20;99.90
60293;DHT22;52402;52.670;6.750;2023-04-24T04:48:05;9.20;99.90
60293;DHT22;52402;52.670;6.750;2023-04-24T04:50:37;9.10;99.90
60293;DHT22;52402;52.670;6.750;2023-04-24T04:53:05;9.20;99.90
60293;DHT22;52402;52.670;6.750;2023-04-24T04:55:36;9.20;99.90
60293;DHT22;52402;52.670;6.750;2023-04-24T04:58:07;9.20;99.90
60293;DHT22;52402;52.670;6.750;2023-04-24T05:00:35;9.20;99.90
60293;DHT22;52402;52.670;6.750;2023-04-24T05:03:10;9.20;99.90
60293;DHT22;52402;52.670;6.750;2023-04-24T05:05:40;9.20;99.90
60293;DHT22;52402;52.670;6.750;2023-04-24T05:08:11;9.20;99.90
60293;DHT22;52402;52.670;6.750;2023-04-24T05:10:40;9.20;99.90
60293;DHT22;52402;52.670;6.750;2023-04-24T05:13:08;9.20;99.90
60293;DHT22;52402;52.670;6.750;2023-04-24T05:15:36;9.20;99.90
60293;DHT22;52402;52.670;6.750;2023-04-24T05:18:04;9.20;99.90
60293;DHT22;52402;52.670;6.750;2023-04-24T05:20:31;9.20;99.90
60293;DHT22;52402;52.670;6.750;2023-04-24T05:22:59;9.20;99.90
60293;DHT22;52402;52.670;6.750;2023-04-24T05:25:29;9.20;99.90
60293;DHT22;52402;52.670;6.750;2023-04-24T05:28:08;9.10;99.90
60293;DHT22;52402;52.670;6.750;2023-04-24T05:30:44;9.10;99.90
60293;DHT22;52402;52.670;6.750;2023-04-24T05:33:14;9.20;99.90
60293;DHT22;52402;52.670;6.750;2023-04-24T05:35:49;9.20;99.90
60293;DHT22;52402;52.670;6.750;2023-04-24T05:38:22;9.20;99.90
60293;DHT22;52402;52.670;6.750;2023-04-24T05:40:52;9.20;99.90
60293;DHT22;52402;52.670;6.750;2023-04-24T05:43:27;9.20;99.90
60293;DHT22;52402;52.670;6.750;2023-04-24T05:45:57;9.10;99.90
60293;DHT22;52402;52.670;6.750;2023-04-24T05:48:26;9.20;99.90
60293;DHT22;52402;52.670;6.750;2023-04-24T05:50:57;9.20;99.90
60293;DHT22;52402;52.670;6.750;2023-04-24T05:53:24;9.10;99.90
60293;DHT22;52402;52.670;6.750;2023-04-24T05:55:50;9.10;99.90
60293;DHT22;52402;52.670;6.750;2023-04-24T05:58:23;9.10;99.90
60293;DHT22;52402;52.670;6.750;2023-04-24T06:00:48;9.00;99.90
60293;DHT22;52402;52.670;6.750;2023-04-24T06:03:25;9.10;99.90
60293;DHT22;52402;52.670;6.750;2023-04-24T06:09:45;9.10;99.90
60293;DHT22;52402;52.670;6.750;2023-04-24T06:12:15;9.00;99.90
60293;DHT22;52402;52.670;6.750;2023-04-24T06:14:48;9.00;99.90
60293;DHT22;52402;52.670;6.750;2023-04-24T06:17:14;9.00;99.90
60293;DHT22;52402;52.670;6.750;2023-04-24T06:19:44;9.00;99.90
60293;DHT22;52402;52.670;6.750;2023-04-24T06:22:14;9.00;99.90
60293;DHT22;52402;52.670;6.750;2023-04-24T06:24:47;9.00;99.90
60293;DHT22;52402;52.670;6.750;2023-04-24T06:27:20;9.00;99.90
60293;DHT22;52402;52.670;6.750;2023-04-24T06:29:52;9.00;99.90
60293;DHT22;52402;52.670;6.750;2023-04-24T06:32:22;9.00;99.90
60293;DHT22;52402;52.670;6.750;2023-04-24T06:34:55;8.90;99.90
60293;DHT22;52402;52.670;6.750;2023-04-24T06:37:26;9.00;99.90
60293;DHT22;52402;52.670;6.750;2023-04-24T06:40:05;9.00;99.90
60293;DHT22;52402;52.670;6.750;2023-04-24T06:42:38;9.00;99.90
60293;DHT22;52402;52.670;6.750;2023-04-24T06:45:08;9.00;99.90
60293;DHT22;52402;52.670;6.750;2023-04-24T06:47:36;9.00;99.90
60293;DHT22;52402;52.670;6.750;2023-04-24T06:50:08;9.00;99.90
60293;DHT22;52402;52.670;6.750;2023-04-24T06:52:42;9.00;99.90
60293;DHT22;52402;52.670;6.750;2023-04-24T06:55:13;9.00;99.90
60293;DHT22;52402;52.670;6.750;2023-04-24T06:57:44;9.00;99.90
60293;DHT22;52402;52.670;6.750;2023-04-24T07:00:18;9.00;99.90
60293;DHT22;52402;52.670;6.750;2023-04-24T07:02:48;8.90;99.90
60293;DHT22;52402;52.670;6.750;2023-04-24T07:05:16;8.90;99.90
60293;DHT22;52402;52.670;6.750;2023-04-24T07:07:47;8.90;99.90
60293;DHT22;52402;52.670;6.750;2023-04-24T07:10:21;9.00;99.90
60293;DHT22;52402;52.670;6.750;2023-04-24T07:12:54;8.90;99.90
60293;DHT22;52402;52.670;6.750;2023-04-24T07:15:24;8.90;99.90
60293;DHT22;52402;52.670;6.750;2023-04-24T07:17:57;8.90;99.90
60293;DHT22;52402;52.670;6.750;2023-04-24T07:20:33;8.90;99.90
60293;DHT22;52402;52.670;6.750;2023-04-24T07:23:23;8.90;99.90
60293;DHT22;52402;52.670;6.750;2023-04-24T07:25:53;8.90;99.90
60293;DHT22;52402;52.670;6.750;2023-04-24T07:28:35;8.90;99.90
60293;DHT22;52402;52.670;6.750;2023-04-24T07:31:05;9.00;99.90
60293;DHT22;52402;52.670;6.750;2023-04-24T07:33:36;8.90;99.90
60293;DHT22;52402;52.670;6.750;2023-04-24T07:36:15;9.00;99.90
60293;DHT22;52402;52.670;6.750;2023-04-24T07:38:51;9.00;99.90
60293;DHT22;52402;52.670;6.750;2023-04-24T07:41:29;9.00;99.90
60293;DHT22;52402;52.670;6.750;2023-04-24T07:46:47;9.10;99.90
60293;DHT22;52402;52.670;6.750;2023-04-24T07:49:18;9.10;99.90
60293;DHT22;52402;52.670;6.750;2023-04-24T07:51:56;9.20;99.90
60293;DHT22;52402;52.670;6.750;2023-04-24T07:54:41;9.30;99.90
60293;DHT22;52402;52.670;6.750;2023-04-24T07:57:11;9.30;99.90
60293;DHT22;52402;52.670;6.750;2023-04-24T07:59:51;9.30;99.90
60293;DHT22;52402;52.670;6.750;2023-04-24T08:04:59;9.40;99.90
60293;DHT22;52402;52.670;6.750;2023-04-24T08:07:31;9.40;99.90
60293;DHT22;52402;52.670;6.750;2023-04-24T08:09:57;9.50;99.90
60293;DHT22;52402;52.670;6.750;2023-04-24T08:12:41;9.50;99.90
60293;DHT22;52402;52.670;6.750;2023-04-24T08:15:11;9.60;99.90
60293;DHT22;52402;52.670;6.750;2023-04-24T08:20:30;9.60;99.90
60293;DHT22;52402;52.670;6.750;2023-04-24T08:23:03;9.60;99.90
60293;DHT22;52402;52.670;6.750;2023-04-24T08:25:42;9.70;99.90
60293;DHT22;52402;52.670;6.750;2023-04-24T08:28:13;9.80;99.90
60293;DHT22;52402;52.670;6.750;2023-04-24T08:36:22;9.80;99.90
60293;DHT22;52402;52.670;6.750;2023-04-24T08:38:59;9.90;99.90
60293;DHT22;52402;52.670;6.750;2023-04-24T08:41:32;9.90;99.90
60293;DHT22;52402;52.670;6.750;2023-04-24T08:47:18;9.90;99.90
60293;DHT22;52402;52.670;6.750;2023-04-24T08:49:56;9.80;99.90
60293;DHT22;52402;52.670;6.750;2023-04-24T08:52:44;9.70;99.90
60293;DHT22;52402;52.670;6.750;2023-04-24T08:55:12;9.70;99.90
60293;DHT22;52402;52.670;6.750;2023-04-24T08:58:02;9.60;99.90
60293;DHT22;52402;52.670;6.750;2023-04-24T09:00:52;9.60;99.90
60293;DHT22;52402;52.670;6.750;2023-04-24T09:03:56;9.50;99.90
60293;DHT22;52402;52.670;6.750;2023-04-24T09:12:00;9.50;99.90
60293;DHT22;52402;52.670;6.750;2023-04-24T09:14:42;9.40;99.90
60293;DHT22;52402;52.670;6.750;2023-04-24T09:17:20;9.40;99.90
60293;DHT22;52402;52.670;6.750;2023-04-24T09:19:50;9.40;99.90
60293;DHT22;52402;52.670;6.750;2023-04-24T09:22:26;9.50;99.90
60293;DHT22;52402;52.670;6.750;2023-04-24T09:25:04;9.50;99.90
60293;DHT22;52402;52.670;6.750;2023-04-24T09:27:48;9.40;99.90
60293;DHT22;52402;52.670;6.750;2023-04-24T09:30:24;9.40;99.90
60293;DHT22;52402;52.670;6.750;2023-04-24T09:33:26;9.30;99.90
60293;DHT22;52402;52.670;6.750;2023-04-24T09:35:56;9.30;99.90
60293;DHT22;52402;52.670;6.750;2023-04-24T09:38:39;9.30;99.90
60293;DHT22;52402;52.670;6.750;2023-04-24T09:41:12;9.30;99.90
60293;DHT22;52402;52.670;6.750;2023-04-24T09:43:44;9.30;99.90
60293;DHT22;52402;52.670;6.750;2023-04-24T09:46:21;9.30;99.90
60293;DHT22;52402;52.670;6.750;2023-04-24T09:49:08;9.20;99.90
60293;DHT22;52402;52.670;6.750;2023-04-24T09:51:41;9.30;99.90
60293;DHT22;52402;52.670;6.750;2023-04-24T09:54:25;9.30;99.90
60293;DHT22;52402;52.670;6.750;2023-04-24T09:56:59;9.30;99.90
60293;DHT22;52402;52.670;6.750;2023-04-24T09:59:30;9.30;99.90
60293;DHT22;52402;52.670;6.750;2023-04-24T10:02:03;9.30;99.90
60293;DHT22;52402;52.670;6.750;2023-04-24T10:04:59;9.30;99.90
60293;DHT22;52402;52.670;6.750;2023-04-24T10:07:34;9.10;99.90
60293;DHT22;52402;52.670;6.750;2023-04-24T10:10:08;9.10;99.90
60293;DHT22;52402;52.670;6.750;2023-04-24T10:12:36;9.20;99.90
60293;DHT22;52402;52.670;6.750;2023-04-24T10:15:12;9.20;99.90
60293;DHT22;52402;52.670;6.750;2023-04-24T10:17:45;9.10;99.90
60293;DHT22;52402;52.670;6.750;2023-04-24T10:20:20;9.20;99.90
60293;DHT22;52402;52.670;6.750;2023-04-24T10:22:54;9.20;99.90
60293;DHT22;52402;52.670;6.750;2023-04-24T10:25:22;9.20;99.90
60293;DHT22;52402;52.670;6.750;2023-04-24T10:27:49;9.30;99.90
60293;DHT22;52402;52.670;6.750;2023-04-24T10:30:19;9.20;99.90
60293;DHT22;52402;52.670;6.750;2023-04-24T10:32:45;9.30;99.90
60293;DHT22;52402;52.670;6.750;2023-04-24T10:35:27;9.40;99.90
60293;DHT22;52402;52.670;6.750;2023-04-24T10:37:58;9.50;99.90
60293;DHT22;52402;52.670;6.750;2023-04-24T10:48:10;9.40;99.90
60293;DHT22;52402;52.670;6.750;2023-04-24T10:51:10;9.10;99.90
60293;DHT22;52402;52.670;6.750;2023-04-24T10:53:59;8.90;99.90
60293;DHT22;52402;52.670;6.750;2023-04-24T10:57:28;8.80;99.90
60293;DHT22;52402;52.670;6.750;2023-04-24T11:02:52;8.70;99.90
60293;DHT22;52402;52.670;6.750;2023-04-24T11:05:19;8.70;99.90
60293;DHT22;52402;52.670;6.750;2023-04-24T11:08:42;8.70;99.90
60293;DHT22;52402;52.670;6.750;2023-04-24T11:11:13;8.80;99.90
60293;DHT22;52402;52.670;6.750;2023-04-24T11:14:08;8.80;99.90
60293;DHT22;52402;52.670;6.750;2023-04-24T11:16:51;8.80;99.90
60293;DHT22;52402;52.670;6.750;2023-04-24T11:19:26;8.90;99.90
60293;DHT22;52402;52.670;6.750;2023-04-24T11:22:13;8.90;99.90
60293;DHT22;52402;52.670;6.750;2023-04-24T11:24:59;8.90;99.90
60293;DHT22;52402;52.670;6.750;2023-04-24T11:27:42;8.90;99.90
60293;DHT22;52402;52.670;6.750;2023-04-24T11:30:21;8.90;99.90
60293;DHT22;52402;52.670;6.750;2023-04-24T11:32:51;9.00;99.90
60293;DHT22;52402;52.670;6.750;2023-04-24T11:35:22;9.10;99.90
60293;DHT22;52402;52.670;6.750;2023-04-24T11:37:52;9.30;99.90
60293;DHT22;52402;52.670;6.750;2023-04-24T11:40:23;9.40;99.90
60293;DHT22;52402;52.670;6.750;2023-04-24T11:42:52;9.50;99.90
60293;DHT22;52402;52.670;6.750;2023-04-24T11:45:28;9.60;99.90
60293;DHT22;52402;52.670;6.750;2023-04-24T11:48:01;9.70;99.90
60293;DHT22;52402;52.670;6.750;2023-04-24T11:50:35;9.70;99.90
60293;DHT22;52402;52.670;6.750;2023-04-24T11:53:12;9.70;99.90
60293;DHT22;52402;52.670;6.750;2023-04-24T11:55:42;9.70;99.90
60293;DHT22;52402;52.670;6.750;2023-04-24T11:58:12;9.70;99.90
60293;DHT22;52402;52.670;6.750;2023-04-24T12:00:42;9.60;99.90
60293;DHT22;52402;52.670;6.750;2023-04-24T12:03:11;9.60;99.90
60293;DHT22;52402;52.670;6.750;2023-04-24T12:05:39;9.60;99.90
60293;DHT22;52402;52.670;6.750;2023-04-24T12:08:27;9.60;99.90
60293;DHT22;52402;52.670;6.750;2023-04-24T12:10:59;9.60;99.90
60293;DHT22;52402;52.670;6.750;2023-04-24T12:13:31;9.60;99.90
60293;DHT22;52402;52.670;6.750;2023-04-24T12:16:03;9.60;99.90
60293;DHT22;52402;52.670;6.750;2023-04-24T12:18:34;9.60;99.90
60293;DHT22;52402;52.670;6.750;2023-04-24T12:21:21;9.50;99.90
60293;DHT22;52402;52.670;6.750;2023-04-24T12:24:00;9.50;99.90
60293;DHT22;52402;52.670;6.750;2023-04-24T12:26:26;9.50;99.90
60293;DHT22;52402;52.670;6.750;2023-04-24T12:29:01;9.40;99.90
60293;DHT22;52402;52.670;6.750;2023-04-24T12:31:30;9.50;99.90
60293;DHT22;52402;52.670;6.750;2023-04-24T12:34:03;9.60;99.90
60293;DHT22;52402;52.670;6.750;2023-04-24T12:36:31;9.60;99.90
60293;DHT22;52402;52.670;6.750;2023-04-24T12:39:16;9.70;99.90
60293;DHT22;52402;52.670;6.750;2023-04-24T12:41:59;9.70;99.90
60293;DHT22;52402;52.670;6.750;2023-04-24T12:44:37;9.60;99.90
60293;DHT22;52402;52.670;6.750;2023-04-24T12:47:07;9.70;99.90
60293;DHT22;52402;52.670;6.750;2023-04-24T12:49:38;9.80;99.90
60293;DHT22;52402;52.670;6.750;2023-04-24T12:52:06;9.80;99.90
60293;DHT22;52402;52.670;6.750;2023-04-24T12:54:39;9.80;99.90
60293;DHT22;52402;52.670;6.750;2023-04-24T12:57:07;9.80;99.90
60293;DHT22;52402;52.670;6.750;2023-04-24T12:59:35;9.80;99.90
60293;DHT22;52402;52.670;6.750;2023-04-24T13:02:03;9.60;99.90
60293;DHT22;52402;52.670;6.750;2023-04-24T13:04:38;9.50;99.90
60293;DHT22;52402;52.670;6.750;2023-04-24T13:07:09;9.40;99.90
60293;DHT22;52402;52.670;6.750;2023-04-24T13:09:45;9.40;99.90
60293;DHT22;52402;52.670;6.750;2023-04-24T13:12:13;9.30;99.90
60293;DHT22;52402;52.670;6.750;2023-04-24T13:14:39;9.20;99.90
60293;DHT22;52402;52.670;6.750;2023-04-24T13:17:07;9.30;99.90
60293;DHT22;52402;52.670;6.750;2023-04-24T13:19:36;9.30;99.90
60293;DHT22;52402;52.670;6.750;2023-04-24T13:22:07;9.20;99.90
60293;DHT22;52402;52.670;6.750;2023-04-24T13:24:37;9.20;99.90
60293;DHT22;52402;52.670;6.750;2023-04-24T13:27:06;9.20;99.90
60293;DHT22;52402;52.670;6.750;2023-04-24T13:29:36;9.20;99.90
60293;DHT22;52402;52.670;6.750;2023-04-24T13:32:10;9.20;99.90
60293;DHT22;52402;52.670;6.750;2023-04-24T13:34:46;9.20;99.90
60293;DHT22;52402;52.670;6.750;2023-04-24T13:37:16;9.20;99.90
60293;DHT22;52402;52.670;6.750;2023-04-24T13:39:46;9.20;99.90
60293;DHT22;52402;52.670;6.750;2023-04-24T13:42:19;9.20;99.90
60293;DHT22;52402;52.670;6.750;2023-04-24T13:44:55;9.20;99.90
60293;DHT22;52402;52.670;6.750;2023-04-24T13:47:25;9.10;99.90
60293;DHT22;52402;52.670;6.750;2023-04-24T13:49:56;9.10;99.90
60293;DHT22;52402;52.670;6.750;2023-04-24T13:52:21;9.20;99.90
60293;DHT22;52402;52.670;6.750;2023-04-24T13:54:57;9.20;99.90
60293;DHT22;52402;52.670;6.750;2023-04-24T13:57:24;9.20;99.90
60293;DHT22;52402;52.670;6.750;2023-04-24T13:59:55;9.20;99.90
60293;DHT22;52402;52.670;6.750;2023-04-24T14:02:30;9.20;99.90
60293;DHT22;52402;52.670;6.750;2023-04-24T14:05:03;9.30;99.90
60293;DHT22;52402;52.670;6.750;2023-04-24T14:07:41;9.30;99.90
60293;DHT22;52402;52.670;6.750;2023-04-24T14:10:11;9.40;99.90
60293;DHT22;52402;52.670;6.750;2023-04-24T14:12:39;9.40;99.90
60293;DHT22;52402;52.670;6.750;2023-04-24T14:15:10;9.40;99.90
60293;DHT22;52402;52.670;6.750;2023-04-24T14:17:42;9.40;99.90
60293;DHT22;52402;52.670;6.750;2023-04-24T14:20:39;9.30;99.90
60293;DHT22;52402;52.670;6.750;2023-04-24T14:23:18;9.30;99.90
60293;DHT22;52402;52.670;6.750;2023-04-24T14:25:46;9.20;99.90
60293;DHT22;52402;52.670;6.750;2023-04-24T14:28:24;9.10;99.90
60293;DHT22;52402;52.670;6.750;2023-04-24T14:30:51;9.10;99.90
60293;DHT22;52402;52.670;6.750;2023-04-24T14:33:19;9.10;99.90
60293;DHT22;52402;52.670;6.750;2023-04-24T14:35:48;9.00;99.90
60293;DHT22;52402;52.670;6.750;2023-04-24T14:38:18;9.00;99.90
60293;DHT22;52402;52.670;6.750;2023-04-24T14:40:55;8.90;99.90
60293;DHT22;52402;52.670;6.750;2023-04-24T14:43:25;8.80;99.90
60293;DHT22;52402;52.670;6.750;2023-04-24T14:46:06;8.80;99.90
60293;DHT22;52402;52.670;6.750;2023-04-24T14:48:44;8.80;99.90
60293;DHT22;52402;52.670;6.750;2023-04-24T14:51:30;8.80;99.90
60293;DHT22;52402;52.670;6.750;2023-04-24T14:54:03;8.80;99.90
60293;DHT22;52402;52.670;6.750;2023-04-24T14:56:33;8.90;99.90
60293;DHT22;52402;52.670;6.750;2023-04-24T14:59:23;9.00;99.90
60293;DHT22;52402;52.670;6.750;2023-04-24T15:02:01;9.10;99.90
60293;DHT22;52402;52.670;6.750;2023-04-24T15:04:29;9.20;99.90
60293;DHT22;52402;52.670;6.750;2023-04-24T15:07:00;9.20;99.90
60293;DHT22;52402;52.670;6.750;2023-04-24T15:09:31;9.20;99.90
60293;DHT22;52402;52.670;6.750;2023-04-24T15:12:01;9.30;99.90
60293;DHT22;52402;52.670;6.750;2023-04-24T15:14:33;9.30;99.90
60293;DHT22;52402;52.670;6.750;2023-04-24T15:17:02;9.30;99.90
60293;DHT22;52402;52.670;6.750;2023-04-24T15:19:30;9.30;99.90
60293;DHT22;52402;52.670;6.750;2023-04-24T15:21:57;9.30;99.90
60293;DHT22;52402;52.670;6.750;2023-04-24T15:24:28;9.20;99.90
60293;DHT22;52402;52.670;6.750;2023-04-24T15:26:55;9.20;99.90
60293;DHT22;52402;52.670;6.750;2023-04-24T15:29:28;9.10;99.90
60293;DHT22;52402;52.670;6.750;2023-04-24T15:31:56;9.20;99.90
60293;DHT22;52402;52.670;6.750;2023-04-24T15:34:32;9.30;99.90
60293;DHT22;52402;52.670;6.750;2023-04-24T15:37:04;9.30;99.90
60293;DHT22;52402;52.670;6.750;2023-04-24T15:39:40;9.40;99.90
60293;DHT22;52402;52.670;6.750;2023-04-24T15:42:08;9.40;99.90
60293;DHT22;52402;52.670;6.750;2023-04-24T15:44:41;9.40;99.90
60293;DHT22;52402;52.670;6.750;2023-04-24T15:47:09;9.20;99.90
60293;DHT22;52402;52.670;6.750;2023-04-24T15:49:37;9.30;99.90
60293;DHT22;52402;52.670;6.750;2023-04-24T15:52:13;9.50;99.90
60293;DHT22;52402;52.670;6.750;2023-04-24T15:54:45;9.70;99.90
60293;DHT22;52402;52.670;6.750;2023-04-24T15:57:17;10.00;99.90
60293;DHT22;52402;52.670;6.750;2023-04-24T15:59:52;10.20;99.90
60293;DHT22;52402;52.670;6.750;2023-04-24T16:02:23;10.10;99.90
60293;DHT22;52402;52.670;6.750;2023-04-24T16:04:55;10.10;99.90
60293;DHT22;52402;52.670;6.750;2023-04-24T16:07:21;9.90;99.90
60293;DHT22;52402;52.670;6.750;2023-04-24T16:09:51;9.90;99.90
60293;DHT22;52402;52.670;6.750;2023-04-24T16:12:21;9.90;99.90
60293;DHT22;52402;52.670;6.750;2023-04-24T16:14:52;9.90;99.90
60293;DHT22;52402;52.670;6.750;2023-04-24T16:17:20;9.80;99.90
60293;DHT22;52402;52.670;6.750;2023-04-24T16:19:50;9.80;99.90
60293;DHT22;52402;52.670;6.750;2023-04-24T16:22:18;9.80;99.90
60293;DHT22;52402;52.670;6.750;2023-04-24T16:24:51;9.80;99.90
60293;DHT22;52402;52.670;6.750;2023-04-24T16:27:16;9.70;99.90
60293;DHT22;52402;52.670;6.750;2023-04-24T16:29:55;9.60;99.90
60293;DHT22;52402;52.670;6.750;2023-04-24T16:32:26;9.60;99.90
60293;DHT22;52402;52.670;6.750;2023-04-24T16:34:53;9.60;99.90
60293;DHT22;52402;52.670;6.750;2023-04-24T16:37:24;9.60;99.90
60293;DHT22;52402;52.670;6.750;2023-04-24T16:39:55;9.50;99.90
60293;DHT22;52402;52.670;6.750;2023-04-24T16:42:25;9.60;99.90
60293;DHT22;52402;52.670;6.750;2023-04-24T16:44:55;9.60;99.90
60293;DHT22;52402;52.670;6.750;2023-04-24T16:47:29;9.50;99.90
60293;DHT22;52402;52.670;6.750;2023-04-24T16:49:59;9.40;99.90
60293;DHT22;52402;52.670;6.750;2023-04-24T16:52:29;9.40;99.90
60293;DHT22;52402;52.670;6.750;2023-04-24T16:54:57;9.50;99.90
60293;DHT22;52402;52.670;6.750;2023-04-24T16:57:28;9.60;99.90